Time;durP1;ratioP1;P1;durP2;ratioP2;P2;SDS_P1;SDS_P2;PMS_P1;PMS_P2;Temp;Humidity;BMP_temperature;BMP_pressure;BME280_temperature;BME280_humidity;BME280_pressure;Samples;Min_cycle;Max_cycle;Signal;HPM_P1;HPM_P2
2021/07/20 00:01:43;;;;;;;21.58;10.85;;;;;;;16.83;84.47;96451.59;5109060;28;20047;-74
2021/07/20 00:04:09;;;;;;;24.70;12.32;;;;;;;16.54;85.31;96444.56;5113275;28;20056;-75
2021/07/20 00:06:35;;;;;;;25.92;11.15;;;;;;;16.44;85.89;96449.47;5113075;28;20395;-75
2021/07/20 00:09:03;;;;;;;20.55;11.07;;;;;;;16.48;86.09;96463.28;5108174;28;20039;-75
2021/07/20 00:11:30;;;;;;;22.13;12.40;;;;;;;16.43;86.31;96467.06;5113536;28;20101;-74
2021/07/20 00:13:56;;;;;;;22.10;12.23;;;;;;;16.18;86.27;96444.47;5113421;28;20052;-74
2021/07/20 00:16:23;;;;;;;28.02;12.32;;;;;;;16.01;87.54;96408.25;5113077;28;20050;-74
2021/07/20 00:18:50;;;;;;;23.95;12.85;;;;;;;15.88;88.41;96339.69;5113274;28;20040;-75
2021/07/20 00:21:17;;;;;;;20.17;11.45;;;;;;;15.83;89.70;96319.91;5112977;28;20668;-74
2021/07/20 00:23:43;;;;;;;17.20;10.65;;;;;;;15.81;89.74;96324.94;5113482;28;20039;-74
2021/07/20 00:26:11;;;;;;;23.23;10.63;;;;;;;15.84;89.78;96335.25;5112709;28;20444;-74
2021/07/20 00:28:38;;;;;;;18.15;10.23;;;;;;;15.84;88.72;96344.28;5113140;28;20118;-75
2021/07/20 00:31:04;;;;;;;19.73;11.27;;;;;;;15.88;88.99;96350.66;5112787;28;20043;-74
2021/07/20 00:33:31;;;;;;;18.25;10.15;;;;;;;15.89;88.99;96346.75;5113259;28;20047;-74
2021/07/20 00:35:58;;;;;;;18.00;10.23;;;;;;;15.92;88.46;96356.22;5113180;28;20403;-74
2021/07/20 00:38:26;;;;;;;15.98;8.85;;;;;;;15.91;88.48;96349.94;5108735;28;20047;-74
2021/07/20 00:40:53;;;;;;;18.75;10.10;;;;;;;15.91;87.52;96349.94;5113062;28;20096;-74
2021/07/20 00:43:20;;;;;;;16.48;9.70;;;;;;;15.89;88.00;96352.25;5112780;28;20069;-74
2021/07/20 00:45:46;;;;;;;18.67;9.98;;;;;;;15.81;88.77;96350.44;5112886;28;20043;-73
2021/07/20 00:48:13;;;;;;;15.15;9.05;;;;;;;15.86;88.03;96355.69;5112432;28;20051;-74
2021/07/20 00:50:41;;;;;;;23.27;10.43;;;;;;;15.89;88.33;96346.75;5113041;28;20051;-74
2021/07/20 00:53:10;;;;;;;22.33;10.98;;;;;;;15.95;88.60;96341.00;5111982;28;20052;-74
2021/07/20 00:55:37;;;;;;;18.60;9.88;;;;;;;15.97;88.62;96341.44;5112620;28;20051;-74
2021/07/20 00:58:04;;;;;;;16.50;9.55;;;;;;;16.03;88.02;96337.31;5112439;28;20180;-74
2021/07/20 01:00:31;;;;;;;22.38;11.57;;;;;;;16.01;88.12;96334.09;5112637;28;20039;-74
2021/07/20 01:02:58;;;;;;;18.95;10.13;;;;;;;16.01;88.42;96336.84;5112411;28;20529;-74
2021/07/20 01:05:25;;;;;;;18.25;9.68;;;;;;;16.03;88.17;96334.56;5112222;28;20043;-74
2021/07/20 01:07:52;;;;;;;19.90;10.60;;;;;;;16.02;88.38;96336.47;5112125;28;20047;-74
2021/07/20 01:10:22;;;;;;;18.70;10.82;;;;;;;16.05;88.25;96337.75;5111694;28;20039;-74
2021/07/20 01:12:49;;;;;;;16.75;9.85;;;;;;;16.07;87.50;96341.72;5112416;28;20044;-73
2021/07/20 01:15:17;;;;;;;19.23;9.63;;;;;;;16.06;87.67;96340.13;5111749;28;20046;-73
2021/07/20 01:17:46;;;;;;;18.55;9.90;;;;;;;16.08;88.27;96337.03;5112378;28;20039;-74
2021/07/20 01:20:15;;;;;;;18.27;10.32;;;;;;;16.10;88.36;96352.00;5111962;28;20066;-74
2021/07/20 01:22:45;;;;;;;17.83;10.48;;;;;;;16.13;88.54;96339.50;5112146;28;20050;-73
2021/07/20 01:25:13;;;;;;;16.90;8.95;;;;;;;16.14;88.86;96341.13;5111329;28;20048;-73
2021/07/20 01:27:46;;;;;;;15.48;8.85;;;;;;;16.20;87.69;96350.69;5111513;28;20073;-74
2021/07/20 01:30:14;;;;;;;15.18;9.02;;;;;;;16.22;87.83;96345.63;5111629;28;20440;-73
2021/07/20 01:32:42;;;;;;;16.23;8.88;;;;;;;16.25;87.43;96342.19;5112064;28;20043;-73
2021/07/20 01:35:10;;;;;;;14.95;8.23;;;;;;;16.24;87.00;96346.09;5111767;28;20054;-73
2021/07/20 01:37:38;;;;;;;16.95;9.23;;;;;;;16.30;86.32;96350.16;5108180;28;20495;-73
2021/07/20 01:40:07;;;;;;;19.23;10.02;;;;;;;16.33;85.89;96354.13;5111196;28;20048;-72
2021/07/20 01:42:36;;;;;;;19.38;8.48;;;;;;;16.33;86.06;96348.63;5111852;28;20520;-74
2021/07/20 01:45:03;;;;;;;15.50;8.48;;;;;;;16.35;85.09;96347.13;5111291;28;20048;-73
2021/07/20 01:47:32;;;;;;;14.30;8.57;;;;;;;16.35;85.04;96347.13;5111918;28;20080;-73
2021/07/20 01:50:00;;;;;;;18.08;8.45;;;;;;;16.37;84.97;96353.06;5111706;28;20044;-74
2021/07/20 01:52:28;;;;;;;17.90;8.98;;;;;;;16.35;85.02;96346.34;5111281;28;20188;-74
2021/07/20 01:54:55;;;;;;;23.33;8.57;;;;;;;16.36;85.12;96343.22;5111693;28;20055;-73
2021/07/20 01:57:21;;;;;;;17.70;9.27;;;;;;;16.40;85.28;96337.84;5111281;28;20051;-73
2021/07/20 01:59:49;;;;;;;18.73;9.80;;;;;;;16.37;85.38;96333.03;5111681;28;20062;-73
2021/07/20 02:02:28;;;;;;;18.38;9.52;;;;;;;16.34;85.56;96329.06;5111221;28;20490;-73
2021/07/20 02:10:26;;;;;;;21.83;10.88;;;;;;;16.19;85.33;96351.84;5090720;28;20051;-73
2021/07/20 02:12:55;;;;;;;21.65;11.13;;;;;;;16.12;85.57;96346.94;5090849;28;20516;-74
2021/07/20 02:15:24;;;;;;;19.88;10.25;;;;;;;16.14;85.58;96343.88;5100003;28;20055;-73
2021/07/20 02:17:53;;;;;;;28.15;11.25;;;;;;;16.16;85.92;96347.03;5111456;28;20435;-74
2021/07/20 02:20:23;;;;;;;33.20;11.65;;;;;;;16.18;86.09;96340.06;5110891;28;20055;-73
2021/07/20 02:22:53;;;;;;;19.17;10.85;;;;;;;16.24;85.68;96348.84;5111333;28;20058;-73
2021/07/20 02:25:21;;;;;;;21.23;11.50;;;;;;;16.27;85.81;96339.84;5110687;28;20050;-73
2021/07/20 02:27:49;;;;;;;22.05;11.43;;;;;;;16.29;86.22;96332.06;5111152;28;20698;-73
2021/07/20 02:30:18;;;;;;;18.27;10.25;;;;;;;16.29;85.04;96329.34;5110778;28;20043;-73
2021/07/20 02:32:47;;;;;;;20.35;10.90;;;;;;;16.27;84.24;96326.13;5111040;28;20511;-74
2021/07/20 02:35:21;;;;;;;15.70;10.00;;;;;;;16.22;83.23;96331.09;5110938;28;20043;-74
2021/07/20 02:37:49;;;;;;;19.08;11.18;;;;;;;16.16;83.76;96336.06;5108031;28;20040;-74
2021/07/20 02:40:16;;;;;;;20.10;10.32;;;;;;;16.11;83.19;96337.13;5114537;28;20054;-73
2021/07/20 02:42:45;;;;;;;19.17;11.38;;;;;;;16.01;83.93;96334.91;5115312;28;20505;-74
2021/07/20 02:45:13;;;;;;;20.55;10.50;;;;;;;15.98;84.17;96343.06;5114755;28;20043;-74
2021/07/20 02:47:40;;;;;;;24.17;12.30;;;;;;;15.94;84.59;96331.97;5115349;28;20051;-74
2021/07/20 02:50:10;;;;;;;22.67;11.43;;;;;;;15.92;85.01;96345.25;5114619;28;20055;-74
2021/07/20 02:52:39;;;;;;;20.38;10.38;;;;;;;15.93;85.50;96346.06;5115025;28;20497;-74
2021/07/20 02:55:07;;;;;;;24.85;10.45;;;;;;;15.93;84.67;96351.56;5114451;28;20055;-74
2021/07/20 02:57:36;;;;;;;23.42;11.65;;;;;;;15.89;84.25;96352.25;5114953;28;20498;-74
2021/07/20 03:00:06;;;;;;;22.85;11.20;;;;;;;15.86;84.24;96350.19;5114657;28;20494;-74
2021/07/20 03:02:35;;;;;;;26.05;11.50;;;;;;;15.77;83.18;96355.06;5114839;28;20070;-74
2021/07/20 03:05:03;;;;;;;20.33;11.13;;;;;;;15.69;83.89;96347.00;5114759;28;20071;-74
2021/07/20 03:07:32;;;;;;;19.60;10.88;;;;;;;15.64;84.47;96351.56;5114299;28;20071;-74
2021/07/20 03:10:01;;;;;;;21.05;11.40;;;;;;;15.59;84.91;96356.50;5114537;28;20054;-74
2021/07/20 03:12:31;;;;;;;24.55;11.73;;;;;;;15.58;84.73;96357.66;5114588;28;20055;-73
2021/07/20 03:14:59;;;;;;;22.13;10.10;;;;;;;15.59;84.63;96360.03;5114656;28;20044;-74
2021/07/20 03:17:28;;;;;;;23.48;11.98;;;;;;;15.61;84.39;96365.19;5114218;28;20067;-74
2021/07/20 03:19:57;;;;;;;22.88;11.73;;;;;;;15.60;84.80;96367.09;5114529;28;20055;-73
2021/07/20 03:22:27;;;;;;;20.85;12.43;;;;;;;15.62;84.45;96369.53;5114063;28;20046;-74
2021/07/20 03:24:57;;;;;;;23.23;11.35;;;;;;;15.63;84.80;96365.66;5114456;28;20494;-73
2021/07/20 03:27:24;;;;;;;20.17;11.20;;;;;;;15.65;84.77;96366.09;5113676;28;20052;-75
2021/07/20 03:29:51;;;;;;;20.75;11.35;;;;;;;15.68;84.78;96368.16;5114480;28;20043;-73
2021/07/20 03:32:19;;;;;;;21.20;12.45;;;;;;;15.69;85.23;96364.25;5114053;28;20039;-74
2021/07/20 03:34:47;;;;;;;18.70;11.27;;;;;;;15.69;84.46;96377.97;5114248;28;20078;-73
2021/07/20 03:37:15;;;;;;;19.65;11.55;;;;;;;15.58;84.42;96374.13;5113712;28;20047;-75
2021/07/20 03:39:42;;;;;;;24.40;11.75;;;;;;;15.58;84.63;96380.41;5113682;28;20486;-73
2021/07/20 03:42:11;;;;;;;18.30;11.60;;;;;;;15.56;84.57;96388.19;5113715;28;20039;-73
2021/07/20 03:44:38;;;;;;;23.25;12.25;;;;;;;15.52;84.49;96387.28;5114035;28;20600;-73
2021/07/20 03:47:06;;;;;;;25.02;12.50;;;;;;;15.51;84.84;96384.91;5113694;28;20100;-72
2021/07/20 03:49:34;;;;;;;25.15;12.77;;;;;;;15.52;85.21;96387.28;5113578;28;20042;-73
2021/07/20 03:52:02;;;;;;;21.42;12.02;;;;;;;15.60;85.81;96393.75;5114021;28;20082;-75
2021/07/20 03:54:31;;;;;;;18.35;11.70;;;;;;;15.60;85.39;96399.25;5113764;28;20044;-75
2021/07/20 03:57:00;;;;;;;22.98;11.75;;;;;;;15.58;85.14;96401.56;5110037;28;20100;-75
2021/07/20 03:59:31;;;;;;;21.50;11.57;;;;;;;15.59;85.10;96398.47;5113610;28;20031;-75
2021/07/20 04:02:00;;;;;;;24.88;11.75;;;;;;;15.58;84.77;96402.34;5113774;28;20043;-75
2021/07/20 04:04:29;;;;;;;21.40;13.15;;;;;;;15.57;85.09;96402.72;5113195;28;20048;-75
2021/07/20 04:06:58;;;;;;;25.08;13.10;;;;;;;15.60;85.97;96402.78;5111665;28;20512;-75
2021/07/20 04:09:25;;;;;;;22.77;13.05;;;;;;;15.61;85.25;96409.09;5112982;28;20043;-75
2021/07/20 04:11:52;;;;;;;21.42;13.23;;;;;;;15.62;85.29;96414.25;5113487;28;20054;-75
2021/07/20 04:14:20;;;;;;;25.38;13.88;;;;;;;15.63;84.80;96415.06;5113068;28;20050;-75
2021/07/20 04:16:48;;;;;;;23.55;12.80;;;;;;;15.66;85.20;96419.88;5113326;28;20040;-75
2021/07/20 04:19:16;;;;;;;28.48;12.55;;;;;;;15.69;84.65;96416.41;5113161;28;20062;-75
2021/07/20 04:21:43;;;;;;;22.23;11.90;;;;;;;15.69;84.50;96424.66;5113118;28;20048;-76
2021/07/20 04:24:10;;;;;;;20.95;11.93;;;;;;;15.71;85.00;96416.84;5112922;28;20062;-75
2021/07/20 04:26:38;;;;;;;23.08;13.43;;;;;;;15.75;85.22;96422.44;5113038;28;20039;-75
2021/07/20 04:29:05;;;;;;;25.02;13.02;;;;;;;15.80;85.76;96420.25;5112672;28;20047;-75
2021/07/20 04:31:32;;;;;;;21.58;13.07;;;;;;;15.88;85.48;96421.25;5113144;28;20043;-75
2021/07/20 04:34:00;;;;;;;20.15;12.88;;;;;;;15.88;85.57;96419.31;5113123;28;20509;-75
2021/07/20 04:36:27;;;;;;;21.40;12.77;;;;;;;15.93;84.82;96417.47;5112105;28;20054;-75
2021/07/20 04:38:54;;;;;;;19.92;12.52;;;;;;;15.99;84.16;96430.59;5113026;28;20398;-75
2021/07/20 04:41:21;;;;;;;22.50;12.65;;;;;;;16.03;84.89;96427.94;5112323;28;20047;-74
2021/07/20 04:43:48;;;;;;;21.92;13.23;;;;;;;16.04;84.96;96429.53;5112848;28;20040;-75
2021/07/20 04:46:17;;;;;;;19.23;12.80;;;;;;;16.05;84.86;96431.13;5112129;28;20043;-75
2021/07/20 04:48:45;;;;;;;26.95;13.73;;;;;;;16.08;85.03;96438.69;5112801;28;20040;-75
2021/07/20 04:51:14;;;;;;;22.80;13.52;;;;;;;16.12;85.57;96437.59;5112270;28;20047;-75
2021/07/20 04:53:41;;;;;;;24.38;12.93;;;;;;;16.13;85.64;96432.91;5112898;28;20047;-75
2021/07/20 04:56:09;;;;;;;22.58;13.18;;;;;;;16.20;85.39;96427.63;5112223;28;20055;-72
2021/07/20 04:58:36;;;;;;;20.63;13.02;;;;;;;16.24;84.79;96423.00;5112969;28;20093;-75
2021/07/20 05:01:04;;;;;;;20.65;12.25;;;;;;;16.27;84.19;96422.28;5111085;28;20505;-74
2021/07/20 05:03:33;;;;;;;23.77;12.80;;;;;;;16.30;84.10;96427.09;5112765;28;20077;-73
2021/07/20 05:06:01;;;;;;;20.58;12.05;;;;;;;16.28;84.22;96432.13;5112686;28;20486;-73
2021/07/20 05:08:31;;;;;;;21.25;12.65;;;;;;;16.31;84.61;96434.19;5112154;28;20043;-75
2021/07/20 05:10:58;;;;;;;20.83;12.10;;;;;;;16.35;85.10;96431.53;5112478;28;20551;-74
2021/07/20 05:13:26;;;;;;;22.30;13.43;;;;;;;16.41;85.17;96430.13;5112219;28;20039;-73
2021/07/20 05:15:54;;;;;;;23.23;13.57;;;;;;;16.44;84.71;96432.97;5112286;28;20046;-73
2021/07/20 05:18:21;;;;;;;21.63;12.85;;;;;;;16.48;83.60;96437.75;5111530;28;20044;-73
2021/07/20 05:20:49;;;;;;;22.77;13.40;;;;;;;16.47;83.34;96431.44;5112057;28;20523;-73
2021/07/20 05:23:18;;;;;;;24.92;13.18;;;;;;;16.49;82.48;96436.56;5111373;28;20046;-73
2021/07/20 05:25:53;;;;;;;24.70;12.88;;;;;;;16.50;82.18;96438.19;5110747;28;20059;-74
2021/07/20 05:28:20;;;;;;;18.67;12.43;;;;;;;16.47;82.26;96431.44;5111361;28;20048;-73
2021/07/20 05:30:50;;;;;;;21.33;12.95;;;;;;;16.50;82.81;96436.25;5111849;28;20039;-73
2021/07/20 05:33:19;;;;;;;21.70;13.55;;;;;;;16.53;82.89;96442.97;5111315;28;20509;-73
2021/07/20 05:35:46;;;;;;;22.55;12.07;;;;;;;16.56;82.09;96442.28;5111982;28;20074;-73
2021/07/20 05:38:13;;;;;;;20.02;12.45;;;;;;;16.59;82.05;96433.31;5111623;28;20414;-73
2021/07/20 05:40:39;;;;;;;23.70;13.18;;;;;;;16.59;82.36;96436.06;5111781;28;20043;-73
2021/07/20 05:43:08;;;;;;;26.55;12.25;;;;;;;16.61;81.61;96434.56;5111411;28;20050;-73
2021/07/20 05:45:36;;;;;;;21.95;12.80;;;;;;;16.64;81.73;96441.28;5111852;28;20043;-73
2021/07/20 05:48:03;;;;;;;21.02;12.98;;;;;;;16.64;80.69;96441.28;5110689;28;20469;-73
2021/07/20 05:50:30;;;;;;;19.17;12.02;;;;;;;16.63;80.70;96435.00;5111713;28;20080;-72
2021/07/20 05:52:59;;;;;;;22.17;12.40;;;;;;;16.65;80.68;96443.69;5111822;28;20051;-72
2021/07/20 05:55:27;;;;;;;22.27;11.88;;;;;;;16.59;78.89;96445.09;5111441;28;20047;-72
2021/07/20 05:57:54;;;;;;;21.05;12.65;;;;;;;16.58;79.29;96446.25;5111780;28;20043;-71
2021/07/20 06:00:25;;;;;;;24.15;13.15;;;;;;;16.66;78.51;96444.50;5110951;28;20402;-71
2021/07/20 06:02:52;;;;;;;23.88;13.45;;;;;;;16.71;78.69;96447.00;5111702;28;20046;-71
2021/07/20 06:05:20;;;;;;;26.92;13.40;;;;;;;16.73;79.82;96450.19;5109352;28;20039;-71
2021/07/20 06:07:47;;;;;;;27.73;13.65;;;;;;;16.76;80.28;96457.75;5111460;28;20039;-71
2021/07/20 06:10:18;;;;;;;21.95;13.70;;;;;;;16.77;80.85;96458.53;5111293;28;20044;-71
2021/07/20 06:12:45;;;;;;;26.23;13.60;;;;;;;16.84;80.40;96456.75;5111325;28;20040;-71
2021/07/20 06:15:13;;;;;;;24.48;14.30;;;;;;;16.93;79.80;96456.56;5109926;28;20067;-72
2021/07/20 06:17:41;;;;;;;25.50;14.43;;;;;;;16.94;80.12;96461.72;5111247;28;20051;-71
2021/07/20 06:20:09;;;;;;;22.75;14.02;;;;;;;17.02;80.06;96470.13;5110957;28;20052;-72
2021/07/20 06:22:42;;;;;;;25.73;13.93;;;;;;;17.04;78.59;96468.63;5111276;28;20047;-72
2021/07/20 06:25:09;;;;;;;23.60;12.97;;;;;;;17.03;79.22;96466.25;5109731;28;20444;-71
2021/07/20 06:27:36;;;;;;;25.40;14.30;;;;;;;17.07;80.05;96469.84;5110699;28;20054;-72
2021/07/20 06:30:05;;;;;;;24.67;13.88;;;;;;;17.10;79.58;96472.69;5110501;28;20047;-71
2021/07/20 06:32:32;;;;;;;20.90;12.57;;;;;;;17.13;77.56;96472.00;5111098;28;20051;-71
2021/07/20 06:35:01;;;;;;;25.15;12.38;;;;;;;17.15;77.18;96474.38;5111220;28;20051;-71
2021/07/20 06:37:27;;;;;;;22.42;13.32;;;;;;;17.21;76.21;96475.69;5110558;28;20044;-71
2021/07/20 06:39:55;;;;;;;26.70;12.40;;;;;;;17.21;76.58;96478.44;5110220;28;20066;-71
2021/07/20 06:42:23;;;;;;;23.85;13.68;;;;;;;17.23;77.73;96487.16;5110419;28;20053;-71
2021/07/20 06:44:51;;;;;;;22.92;13.07;;;;;;;17.32;79.55;96482.22;5110944;28;20048;-71
2021/07/20 06:47:18;;;;;;;20.65;13.20;;;;;;;17.40;78.77;96484.00;5110678;28;20497;-72
2021/07/20 06:49:47;;;;;;;22.33;13.48;;;;;;;17.40;78.76;96484.00;5111004;28;20043;-75
2021/07/20 06:52:17;;;;;;;24.98;13.05;;;;;;;17.48;79.51;96484.94;5110359;28;20093;-75
2021/07/20 06:54:44;;;;;;;23.35;12.38;;;;;;;17.54;77.86;96478.03;5110607;28;20405;-75
2021/07/20 06:57:14;;;;;;;22.17;13.32;;;;;;;17.49;76.71;96481.06;5109992;28;20498;-75
2021/07/20 06:59:43;;;;;;;22.65;12.10;;;;;;;17.56;77.27;96481.22;5110979;28;20055;-75
2021/07/20 07:02:11;;;;;;;21.63;13.27;;;;;;;17.62;77.50;96478.97;5110475;28;20043;-75
2021/07/20 07:04:46;;;;;;;27.17;14.35;;;;;;;17.69;78.56;96479.09;5110531;28;20039;-75
2021/07/20 07:07:14;;;;;;;20.02;12.77;;;;;;;17.74;78.45;96473.34;5110331;28;20054;-74
2021/07/20 07:09:43;;;;;;;21.75;12.18;;;;;;;17.76;76.61;96475.75;5110982;28;20048;-74
2021/07/20 07:12:11;;;;;;;21.27;10.88;;;;;;;17.81;70.24;96479.03;5110539;28;20042;-74
2021/07/20 07:14:38;;;;;;;22.55;11.23;;;;;;;17.85;70.59;96479.06;5110392;28;20040;-74
2021/07/20 07:17:06;;;;;;;18.73;11.07;;;;;;;17.84;70.32;96480.25;5110438;28;20051;-76
2021/07/20 07:19:33;;;;;;;19.73;10.95;;;;;;;17.88;71.68;96481.91;5110674;28;20047;-75
2021/07/20 07:22:00;;;;;;;21.20;11.40;;;;;;;17.94;71.69;96480.47;5110827;28;20052;-74
2021/07/20 07:24:28;;;;;;;17.27;10.48;;;;;;;17.96;68.70;96483.69;5111681;28;20048;-75
2021/07/20 07:26:56;;;;;;;15.18;10.75;;;;;;;18.02;70.01;96480.63;5114500;28;20055;-75
2021/07/20 07:29:23;;;;;;;18.60;11.18;;;;;;;18.11;72.14;96483.94;5113459;28;20456;-74
2021/07/20 07:31:50;;;;;;;18.35;10.90;;;;;;;18.16;72.05;96480.88;5114270;28;20406;-75
2021/07/20 07:34:17;;;;;;;16.33;10.02;;;;;;;18.24;72.08;96486.19;5113963;28;20062;-74
2021/07/20 07:36:46;;;;;;;24.92;11.40;;;;;;;18.28;72.01;96489.03;5114443;28;20059;-75
2021/07/20 07:39:14;;;;;;;17.80;10.98;;;;;;;18.38;71.40;96482.13;5113854;28;20086;-75
2021/07/20 07:41:45;;;;;;;16.73;10.25;;;;;;;18.44;70.83;96494.44;5114235;28;20510;-75
2021/07/20 07:44:15;;;;;;;19.65;10.30;;;;;;;18.45;67.41;96487.75;5113547;28;20070;-74
2021/07/20 07:46:45;;;;;;;15.50;9.63;;;;;;;18.49;66.61;96489.41;5093812;28;20123;-75
2021/07/20 07:49:13;;;;;;;14.88;9.88;;;;;;;18.51;66.58;96492.59;5093572;28;20071;-73
2021/07/20 07:51:42;;;;;;;17.70;10.75;;;;;;;18.59;66.14;96488.03;5093760;28;20044;-74
2021/07/20 07:54:09;;;;;;;17.35;10.57;;;;;;;18.78;68.54;96492.69;5093353;28;20047;-73
2021/07/20 07:56:37;;;;;;;18.70;10.40;;;;;;;18.98;72.14;96488.72;5093668;28;20065;-74
2021/07/20 07:59:05;;;;;;;19.27;11.25;;;;;;;19.13;71.24;96477.91;5105415;28;20057;-75
2021/07/20 08:01:34;;;;;;;18.45;9.68;;;;;;;19.22;66.18;96484.78;5113634;28;20108;-74
2021/07/20 08:04:02;;;;;;;15.20;9.48;;;;;;;19.39;65.81;96483.44;5113406;28;20051;-74
2021/07/20 08:06:31;;;;;;;17.05;10.40;;;;;;;19.47;66.96;96487.91;5112348;28;20039;-75
2021/07/20 08:09:00;;;;;;;19.80;10.13;;;;;;;19.67;66.09;96490.56;5113540;28;20051;-76
2021/07/20 08:11:29;;;;;;;19.27;9.70;;;;;;;20.03;63.58;96491.81;5113007;28;20513;-75
2021/07/20 08:13:59;;;;;;;13.38;9.18;;;;;;;21.14;64.69;96492.97;5112223;28;20046;-75
2021/07/20 08:16:29;;;;;;;12.82;9.15;;;;;;;22.35;59.82;96496.53;5093978;28;20051;-75
2021/07/20 08:19:01;;;;;;;15.70;9.77;;;;;;;23.42;57.78;96497.47;5092688;28;20067;-75
2021/07/20 08:21:28;;;;;;;15.88;8.35;;;;;;;24.25;54.12;96494.50;5092216;28;20617;-77
2021/07/20 08:23:55;;;;;;;15.45;9.27;;;;;;;24.94;51.83;96488.97;5092788;28;20056;-75
2021/07/20 08:26:25;;;;;;;12.80;8.30;;;;;;;25.28;48.10;96498.72;5091821;28;20093;-77
2021/07/20 08:28:58;;;;;;;15.25;9.10;;;;;;;25.79;48.79;96497.06;5092965;28;20049;-77
2021/07/20 08:31:27;;;;;;;11.35;8.23;;;;;;;26.24;46.32;96495.75;5092238;28;20051;-77
2021/07/20 08:33:57;;;;;;;19.33;9.75;;;;;;;26.56;46.99;96497.38;5092443;28;20050;-78
2021/07/20 08:36:27;;;;;;;15.50;8.48;;;;;;;26.91;44.49;96500.88;5092267;28;20048;-76
2021/07/20 08:38:56;;;;;;;14.27;8.88;;;;;;;27.01;46.85;96499.94;5092470;28;20047;-77
2021/07/20 08:41:39;;;;;;;17.08;9.38;;;;;;;27.26;47.57;96500.38;5092032;28;20474;-79
2021/07/20 08:44:28;;;;;;;17.70;9.00;;;;;;;27.62;42.75;96505.34;5092027;28;20040;-76
2021/07/20 08:47:04;;;;;;;14.77;9.20;;;;;;;27.64;41.08;96502.91;5092141;28;20502;-78
2021/07/20 08:50:13;;;;;;;12.65;8.45;;;;;;;27.79;40.16;96509.88;5092259;28;20047;-78
2021/07/20 08:52:45;;;;;;;13.43;8.75;;;;;;;27.74;41.90;96501.97;5091816;28;20523;-77
2021/07/20 08:55:14;;;;;;;13.90;8.57;;;;;;;28.07;43.65;96507.75;5091915;28;20054;-78
2021/07/20 08:57:48;;;;;;;12.07;8.23;;;;;;;28.26;39.74;96504.16;5090021;28;20047;-78
2021/07/20 09:00:17;;;;;;;14.00;9.10;;;;;;;28.39;42.33;96500.75;5091515;28;20051;-77
2021/07/20 09:02:51;;;;;;;15.25;8.65;;;;;;;28.73;37.77;96509.63;5091769;28;20055;-77
2021/07/20 09:05:26;;;;;;;14.45;8.48;;;;;;;28.55;38.29;96503.59;5091546;28;20040;-77
2021/07/20 09:08:00;;;;;;;15.48;8.77;;;;;;;28.37;43.04;96508.78;5104195;28;20052;-77
2021/07/20 09:10:32;;;;;;;14.80;8.43;;;;;;;28.03;40.13;96509.81;5111747;28;20383;-77
2021/07/20 09:13:03;;;;;;;17.58;9.25;;;;;;;27.67;42.61;96507.66;5112177;28;20093;-77
2021/07/20 09:15:31;;;;;;;15.85;9.55;;;;;;;27.62;43.52;96498.97;5111708;28;20051;-78
2021/07/20 09:18:10;;;;;;;15.30;9.07;;;;;;;27.57;41.51;96514.22;5112014;28;20055;-78
2021/07/20 09:20:38;;;;;;;13.25;9.23;;;;;;;27.15;43.13;96508.13;5104838;28;20478;-78
2021/07/20 09:23:10;;;;;;;15.25;9.70;;;;;;;26.39;46.35;96501.94;5091140;28;20406;-80
2021/07/20 09:25:41;;;;;;;15.15;9.60;;;;;;;26.90;49.20;96502.09;5090924;28;20040;-77
2021/07/20 09:28:15;;;;;;;13.68;8.27;;;;;;;27.64;47.12;96507.72;5091117;28;20534;-77
2021/07/20 09:30:46;;;;;;;15.07;9.88;;;;;;;28.20;38.87;96499.50;5091134;28;20063;-77
2021/07/20 09:33:21;;;;;;;13.65;8.88;;;;;;;28.29;39.07;96502.50;5090875;28;20051;-78
2021/07/20 09:35:55;;;;;;;16.25;9.20;;;;;;;27.53;39.23;96502.31;5091430;28;20131;-78
2021/07/20 09:38:43;;;;;;;14.63;8.32;;;;;;;27.41;39.71;96503.72;5107726;28;20054;-80
2021/07/20 09:41:20;;;;;;;13.18;8.80;;;;;;;27.60;41.81;96499.38;5111035;28;20051;-77
2021/07/20 09:43:53;;;;;;;12.88;8.80;;;;;;;27.64;44.08;96497.31;5111504;28;20035;-77
2021/07/20 09:46:26;;;;;;;14.50;8.27;;;;;;;27.47;40.90;96501.22;5110396;28;20123;-78
2021/07/20 09:48:55;;;;;;;;;;;;;;;27.24;46.48;96501.97;5112079;28;20059;-77
2021/07/20 09:51:57;;;;;;;14.10;8.50;;;;;;;26.97;44.38;96499.19;5111055;28;19923;-77
2021/07/20 09:54:41;;;;;;;13.68;7.85;;;;;;;26.52;47.46;96497.44;5084732;28;20039;-76
2021/07/20 09:57:19;;;;;;;17.65;8.90;;;;;;;26.31;41.81;96497.69;5111085;28;20052;-78
2021/07/20 09:59:56;;;;;;;16.92;8.52;;;;;;;26.18;46.80;96491.03;5111292;28;20067;-77
2021/07/20 10:02:32;;;;;;;14.85;9.07;;;;;;;26.04;43.54;96494.78;5110533;28;20450;-77
2021/07/20 10:05:05;;;;;;;17.90;9.30;;;;;;;25.72;47.56;96495.91;5111036;28;20510;-77
2021/07/20 10:07:40;;;;;;;14.20;9.02;;;;;;;25.74;43.05;96493.53;5110795;28;20132;-76
2021/07/20 10:10:15;;;;;;;16.10;9.05;;;;;;;25.77;48.73;96492.69;5092682;28;20052;-77
2021/07/20 10:12:58;;;;;;;11.80;7.97;;;;;;;25.76;39.64;96490.31;5110727;28;20040;-77
2021/07/20 10:15:35;;;;;;;;;;;;;;;25.84;38.48;96485.44;5111087;28;20127;-77
2021/07/20 10:18:06;;;;;;;15.00;8.75;;;;;;;25.63;38.33;96492.81;5111249;28;19927;-78
2021/07/20 10:20:38;;;;;;;18.15;7.93;;;;;;;25.41;42.29;96488.63;5111132;28;20036;-78
2021/07/20 10:23:12;;;;;;;13.90;8.52;;;;;;;25.46;44.99;96486.19;5110751;28;20138;-76
2021/07/20 10:25:44;;;;;;;13.07;8.85;;;;;;;25.54;46.08;96486.94;5110732;28;20509;-77
2021/07/20 10:28:15;;;;;;;15.97;9.60;;;;;;;25.58;47.02;96484.09;5110632;28;20509;-77
2021/07/20 10:30:49;;;;;;;15.30;9.32;;;;;;;25.63;43.90;96486.44;5111161;28;20064;-76
2021/07/20 10:33:22;;;;;;;19.13;9.63;;;;;;;25.73;44.16;96480.72;5110490;28;20046;-75
2021/07/20 10:35:51;;;;;;;;;;;;;;;25.68;45.14;96483.19;5111057;28;20047;-77
2021/07/20 10:38:22;;;;;;;15.30;9.48;;;;;;;25.38;44.57;96481.09;5110515;28;20267;-78
2021/07/20 10:40:53;;;;;;;15.55;9.95;;;;;;;25.13;47.62;96487.66;5111083;28;20044;-79
2021/07/20 10:43:25;;;;;;;16.77;10.10;;;;;;;25.07;46.32;96483.75;5110068;28;20498;-77
2021/07/20 10:45:53;;;;;;;21.80;13.32;;;;;;;24.92;45.88;96476.66;5109933;28;20055;-76
2021/07/20 10:48:21;;;;;;;15.93;9.82;;;;;;;24.68;47.25;96481.19;5109225;28;20044;-74
2021/07/20 10:50:53;;;;;;;15.93;10.25;;;;;;;24.48;47.92;96480.91;5110535;28;20066;-77
2021/07/20 10:53:34;;;;;;;21.70;11.43;;;;;;;24.48;49.76;96475.31;5110241;28;20043;-76
2021/07/20 10:56:08;;;;;;;18.85;10.63;;;;;;;24.56;45.67;96478.88;5110367;28;20281;-78
2021/07/20 10:58:46;;;;;;;15.82;10.30;;;;;;;24.71;42.99;96475.59;5110710;28;20050;-76
2021/07/20 11:01:17;;;;;;;16.25;10.55;;;;;;;24.58;47.30;96479.25;5114257;28;20130;-76
2021/07/20 11:04:00;;;;;;;16.92;10.20;;;;;;;24.61;45.04;96479.25;5114506;28;20463;-78
2021/07/20 11:06:28;;;;;;;17.33;9.85;;;;;;;24.66;46.89;96475.25;5114300;28;20039;-73
2021/07/20 11:08:59;;;;;;;18.70;10.60;;;;;;;24.68;49.05;96470.84;5114534;28;20553;-73
2021/07/20 11:11:30;;;;;;;21.67;12.27;;;;;;;24.70;48.68;96474.03;5111938;28;20044;-73
2021/07/20 11:14:01;;;;;;;18.48;10.32;;;;;;;24.65;48.03;96471.66;5113475;28;20047;-74
2021/07/20 11:16:32;;;;;;;16.55;10.25;;;;;;;24.81;51.69;96459.25;5114011;28;20047;-74
2021/07/20 11:19:03;;;;;;;18.13;11.35;;;;;;;24.96;42.73;96461.50;5114397;28;20044;-77
2021/07/20 11:21:32;;;;;;;20.02;11.15;;;;;;;24.97;45.90;96459.50;5113955;28;20042;-77
2021/07/20 11:23:59;;;;;;;20.80;11.35;;;;;;;25.02;45.81;96464.66;5114339;28;20050;-77
2021/07/20 11:26:30;;;;;;;16.08;10.68;;;;;;;25.07;44.48;96461.47;5113505;28;20043;-78
2021/07/20 11:28:57;;;;;;;22.25;12.35;;;;;;;25.15;50.75;96456.59;5114088;28;20410;-77
2021/07/20 11:31:29;;;;;;;18.92;11.48;;;;;;;25.10;47.21;96457.84;5112846;28;20052;-78
2021/07/20 11:34:00;;;;;;;16.60;11.52;;;;;;;25.03;46.85;96460.66;5113563;28;20047;-78
2021/07/20 11:36:31;;;;;;;18.02;11.07;;;;;;;24.80;45.46;96452.09;5113265;28;20051;-76